createdAt,value
2023-04-20T00:00:40.001Z,9.68
2023-04-20T00:07:24.778Z,9.07
2023-04-20T00:14:08.533Z,9.35
2023-04-20T00:20:50.682Z,9.40
2023-04-20T00:27:33.007Z,10.13
2023-04-20T00:34:16.150Z,10.27
2023-04-20T00:40:58.616Z,9.88
2023-04-20T00:47:41.182Z,10.88
2023-04-20T00:54:23.760Z,9.90
2023-04-20T01:01:06.039Z,9.95
2023-04-20T01:07:48.205Z,8.85
2023-04-20T01:14:30.568Z,10.05
2023-04-20T01:21:15.013Z,9.25
2023-04-20T01:27:57.230Z,9.68
2023-04-20T01:34:39.442Z,8.95
2023-04-20T01:41:21.852Z,9.63
2023-04-20T01:48:04.439Z,10.05
2023-04-20T01:54:48.242Z,9.75
2023-04-20T02:01:30.529Z,8.10
2023-04-20T02:08:12.728Z,10.63
2023-04-20T02:14:55.387Z,7.63
2023-04-20T02:21:39.745Z,7.47
2023-04-20T02:28:22.018Z,7.68
2023-04-20T02:35:04.679Z,7.55
2023-04-20T02:41:47.716Z,7.35
2023-04-20T02:48:29.989Z,6.88
2023-04-20T02:55:12.266Z,8.55
2023-04-20T03:08:41.145Z,6.38
2023-04-20T03:15:44.266Z,5.68
2023-04-20T03:22:39.271Z,6.03
2023-04-20T03:29:22.695Z,5.78
2023-04-20T03:36:06.386Z,5.38
2023-04-20T03:42:48.673Z,6.22
2023-04-20T03:49:31.126Z,7.43
2023-04-20T03:56:13.380Z,5.28
2023-04-20T04:02:55.834Z,6.20
2023-04-20T04:09:42.788Z,5.53
2023-04-20T04:16:26.768Z,5.60
2023-04-20T04:23:10.027Z,5.38
2023-04-20T04:29:58.318Z,6.03
2023-04-20T04:36:40.700Z,5.72
2023-04-20T04:43:27.577Z,7.03
2023-04-20T04:50:21.811Z,7.37
2023-04-20T04:57:04.210Z,6.03
2023-04-20T05:03:46.690Z,7.40
2023-04-20T05:10:28.975Z,6.65
2023-04-20T05:17:12.032Z,6.88
2023-04-20T05:23:54.187Z,7.82
2023-04-20T05:30:36.337Z,6.78
2023-04-20T05:37:18.539Z,7.97
2023-04-20T05:44:00.898Z,7.35
2023-04-20T05:50:43.069Z,7.28
2023-04-20T05:57:25.379Z,7.82
2023-04-20T06:04:07.773Z,7.32
2023-04-20T06:10:58.106Z,7.47
2023-04-20T06:17:41.061Z,7.13
2023-04-20T06:24:23.934Z,7.50
2023-04-20T06:31:06.850Z,7.05
2023-04-20T06:37:49.396Z,6.85
2023-04-20T06:44:31.524Z,6.72
2023-04-20T06:51:14.263Z,6.82
2023-04-20T06:57:56.433Z,7.25
2023-04-20T07:04:38.677Z,5.22
2023-04-20T07:11:20.917Z,7.22
2023-04-20T07:18:03.355Z,7.00
2023-04-20T07:24:45.968Z,7.35
2023-04-20T07:31:28.214Z,9.90
2023-04-20T07:38:11.133Z,8.23
2023-04-20T07:44:53.344Z,9.52
2023-04-20T07:51:36.091Z,7.50
2023-04-20T07:58:18.554Z,7.18
2023-04-20T08:05:03.533Z,6.57
2023-04-20T08:11:46.346Z,7.07
2023-04-20T08:18:30.602Z,7.80
2023-04-20T08:25:12.804Z,5.82
2023-04-20T08:31:55.021Z,6.25
2023-04-20T08:38:37.463Z,7.70
2023-04-20T08:45:19.675Z,7.25
2023-04-20T08:52:01.841Z,6.32
2023-04-20T08:58:44.024Z,7.95
2023-04-20T09:05:31.653Z,8.07
2023-04-20T09:12:14.024Z,7.43
2023-04-20T09:18:57.498Z,8.07
2023-04-20T09:25:41.160Z,7.80
2023-04-20T09:32:24.429Z,7.13
2023-04-20T09:39:11.576Z,7.10
2023-04-20T09:45:54.802Z,7.03
2023-04-20T09:52:38.859Z,7.35
2023-04-20T09:59:22.282Z,6.90
2023-04-20T10:06:05.007Z,7.27
2023-04-20T10:12:57.203Z,7.35
2023-04-20T10:19:44.275Z,6.63
2023-04-20T10:26:37.815Z,6.78
2023-04-20T10:33:20.266Z,6.93
2023-04-20T10:40:07.542Z,6.30
2023-04-20T10:46:51.673Z,6.82
2023-04-20T10:53:33.843Z,6.97
2023-04-20T11:00:29.634Z,6.65
2023-04-20T11:07:15.001Z,7.35
2023-04-20T11:14:10.384Z,7.65
2023-04-20T11:20:56.239Z,7.03
2023-04-20T11:27:39.826Z,6.35
2023-04-20T11:34:23.708Z,5.30
2023-04-20T11:41:07.867Z,6.68
2023-04-20T11:47:50.997Z,6.22
2023-04-20T11:54:35.081Z,6.05
2023-04-20T12:01:17.232Z,6.30
2023-04-20T12:07:59.376Z,7.40
2023-04-20T12:14:41.504Z,6.72
2023-04-20T12:21:23.834Z,5.88
2023-04-20T12:28:07.422Z,6.88
2023-04-20T12:34:49.654Z,6.80
2023-04-20T12:41:31.960Z,5.70
2023-04-20T12:48:14.392Z,6.40
2023-04-20T12:54:56.569Z,5.88
2023-04-20T13:01:38.775Z,5.10
2023-04-20T13:08:21.726Z,6.13
2023-04-20T13:15:04.527Z,6.22
2023-04-20T13:21:47.048Z,5.63
2023-04-20T13:28:29.232Z,6.07
2023-04-20T13:35:12.483Z,5.93
2023-04-20T13:41:54.676Z,5.50
2023-04-20T13:48:37.365Z,6.43
2023-04-20T13:55:20.794Z,6.25
2023-04-20T14:02:03.119Z,5.97
2023-04-20T14:08:45.524Z,6.28
2023-04-20T14:15:28.334Z,5.72
2023-04-20T14:22:10.794Z,5.68
2023-04-20T14:28:53.895Z,6.50
2023-04-20T14:35:36.378Z,6.30
2023-04-20T14:42:18.677Z,5.88
2023-04-20T14:49:00.788Z,6.07
2023-04-20T14:55:42.937Z,6.07
2023-04-20T15:02:25.591Z,6.55
2023-04-20T15:09:08.012Z,5.85
2023-04-20T15:15:51.943Z,6.40
2023-04-20T15:22:37.206Z,5.13
2023-04-20T15:29:21.667Z,5.83
2023-04-20T15:36:04.022Z,5.97
2023-04-20T15:42:46.153Z,5.60
2023-04-20T15:49:28.251Z,4.90
2023-04-20T15:56:10.373Z,5.25
2023-04-20T16:02:54.241Z,5.22
2023-04-20T16:09:36.716Z,6.53
2023-04-20T16:16:19.124Z,6.15
2023-04-20T16:23:01.609Z,5.85
2023-04-20T16:29:43.792Z,6.70
2023-04-20T16:36:27.127Z,6.13
2023-04-20T16:43:09.667Z,5.90
2023-04-20T16:49:51.825Z,5.55
2023-04-20T16:56:33.962Z,5.15
2023-04-20T17:03:16.381Z,5.53
2023-04-20T17:09:59.269Z,4.88
2023-04-20T17:16:41.470Z,5.25
2023-04-20T17:23:24.071Z,5.60
2023-04-20T17:30:07.149Z,6.20
2023-04-20T17:36:49.290Z,6.28
2023-04-20T17:43:31.771Z,5.38
2023-04-20T17:50:16.320Z,5.25
2023-04-20T17:56:58.460Z,5.63
2023-04-20T18:03:40.973Z,5.30
2023-04-20T18:10:23.195Z,5.90
2023-04-20T18:17:05.400Z,4.18
2023-04-20T18:23:47.882Z,4.63
2023-04-20T18:30:30.381Z,4.55
2023-04-20T18:37:13.041Z,5.93
2023-04-20T18:43:56.619Z,4.53
2023-04-20T18:50:38.763Z,4.55
2023-04-20T18:57:26.034Z,6.30
2023-04-20T19:04:09.002Z,5.30
2023-04-20T19:10:54.005Z,5.45
2023-04-20T19:17:36.617Z,4.88
2023-04-20T19:24:19.446Z,4.63
2023-04-20T19:31:02.095Z,4.28
2023-04-20T19:37:44.313Z,6.43
2023-04-20T19:44:27.846Z,5.47
2023-04-20T19:51:11.608Z,4.45
2023-04-20T19:57:53.823Z,5.55
2023-04-20T20:04:37.811Z,5.47
2023-04-20T20:11:22.086Z,5.17
2023-04-20T20:18:04.900Z,5.23
2023-04-20T20:24:47.948Z,6.68
2023-04-20T20:31:30.279Z,5.88
2023-04-20T20:38:12.641Z,6.05
2023-04-20T20:44:55.152Z,6.93
2023-04-20T20:51:37.320Z,6.45
2023-04-20T20:58:19.669Z,4.90
2023-04-20T21:05:02.060Z,4.57
2023-04-20T21:11:44.386Z,3.65
2023-04-20T21:18:27.098Z,3.47
2023-04-20T21:25:09.859Z,3.10
2023-04-20T21:31:52.336Z,4.22
2023-04-20T21:38:34.905Z,2.92
2023-04-20T21:45:17.236Z,3.00
2023-04-20T21:51:59.458Z,3.28
2023-04-20T21:58:41.777Z,2.50
2023-04-20T22:05:24.095Z,2.58
2023-04-20T22:12:06.665Z,2.72
2023-04-20T22:18:49.680Z,2.67
2023-04-20T22:25:32.158Z,2.58
2023-04-20T22:32:14.300Z,2.97
2023-04-20T22:38:56.540Z,3.20
2023-04-20T22:45:38.658Z,2.75
2023-04-20T22:52:21.269Z,1.85
2023-04-20T22:59:03.839Z,2.75
2023-04-20T23:05:45.995Z,2.75
2023-04-20T23:12:32.423Z,2.65
2023-04-20T23:19:14.542Z,4.45
2023-04-20T23:25:57.259Z,3.08
2023-04-20T23:32:39.476Z,2.53
2023-04-20T23:39:21.864Z,2.28
2023-04-20T23:46:07.692Z,2.58
2023-04-20T23:52:50.092Z,2.47
2023-04-20T23:59:33.682Z,2.50
